createdAt,value
2023-05-25T00:01:01.873Z,8.10
2023-05-25T00:05:05.254Z,7.90
2023-05-25T00:09:08.092Z,7.70
2023-05-25T00:13:10.245Z,7.80
2023-05-25T00:17:12.168Z,7.70
2023-05-25T00:21:14.428Z,7.70
2023-05-25T00:25:16.289Z,7.60
2023-05-25T00:29:18.133Z,7.60
2023-05-25T00:33:19.910Z,7.40
2023-05-25T00:37:22.272Z,7.20
2023-05-25T00:41:26.290Z,7.50
2023-05-25T00:45:28.086Z,7.40
2023-05-25T00:49:33.000Z,7.40
2023-05-25T00:53:37.068Z,7.40
2023-05-25T00:57:49.024Z,7.30
2023-05-25T01:01:55.305Z,7.40
2023-05-25T01:05:59.093Z,7.50
2023-05-25T01:10:04.908Z,7.20
2023-05-25T01:14:06.800Z,7.00
2023-05-25T01:18:09.452Z,6.90
2023-05-25T01:22:24.154Z,6.90
2023-05-25T01:26:29.804Z,6.90
2023-05-25T01:30:33.092Z,6.90
2023-05-25T01:34:36.119Z,6.90
2023-05-25T01:38:42.906Z,6.80
2023-05-25T01:42:44.900Z,6.80
2023-05-25T01:47:16.890Z,6.80
2023-05-25T01:51:48.055Z,6.90
2023-05-25T01:55:56.360Z,6.90
2023-05-25T02:00:03.161Z,6.70
2023-05-25T02:04:05.816Z,6.60
2023-05-25T02:08:07.964Z,6.70
2023-05-25T02:12:10.071Z,6.60
2023-05-25T02:16:18.137Z,6.70
2023-05-25T02:20:23.088Z,6.40
2023-05-25T02:24:25.579Z,6.60
2023-05-25T02:28:30.181Z,6.60
2023-05-25T02:32:33.743Z,6.70
2023-05-25T02:36:38.468Z,6.40
2023-05-25T02:40:40.583Z,6.30
2023-05-25T02:44:48.388Z,6.30
2023-05-25T02:48:51.155Z,6.40
2023-05-25T02:52:53.198Z,6.50
2023-05-25T02:56:55.267Z,6.50
2023-05-25T03:01:00.416Z,6.10
2023-05-25T03:05:06.539Z,6.20
2023-05-25T03:09:12.592Z,6.30
2023-05-25T03:13:14.928Z,6.30
2023-05-25T03:17:24.321Z,5.90
2023-05-25T03:21:28.620Z,6.10
2023-05-25T03:25:31.480Z,6.20
2023-05-25T03:29:35.643Z,6.30
2023-05-25T03:33:37.721Z,6.20
2023-05-25T03:37:39.880Z,6.30
2023-05-25T03:41:43.302Z,6.30
2023-05-25T03:45:52.903Z,6.40
2023-05-25T03:49:57.978Z,6.30
2023-05-25T03:54:02.851Z,6.20
2023-05-25T03:58:10.324Z,6.20
2023-05-25T04:02:14.396Z,5.70
2023-05-25T04:06:19.419Z,5.70
2023-05-25T04:10:21.682Z,5.90
2023-05-25T04:14:28.805Z,6.10
2023-05-25T04:18:30.751Z,6.20
2023-05-25T04:22:33.556Z,6.40
2023-05-25T04:26:46.311Z,6.50
2023-05-25T04:30:48.233Z,6.70
2023-05-25T04:34:59.454Z,6.80
2023-05-25T04:39:07.467Z,6.90
2023-05-25T04:43:11.476Z,6.90
2023-05-25T04:47:16.692Z,7.10
2023-05-25T04:51:18.810Z,7.10
2023-05-25T04:55:20.881Z,7.50
2023-05-25T04:59:22.898Z,7.70
2023-05-25T05:03:29.608Z,8.00
2023-05-25T05:07:31.783Z,7.90
2023-05-25T05:11:36.127Z,7.80
2023-05-25T05:15:40.432Z,8.30
2023-05-25T05:19:42.519Z,8.80
2023-05-25T05:23:46.981Z,9.00
2023-05-25T05:27:49.061Z,8.80
2023-05-25T05:31:55.755Z,8.90
2023-05-25T05:36:01.387Z,9.20
2023-05-25T05:40:09.971Z,9.20
2023-05-25T05:44:15.673Z,9.60
2023-05-25T05:48:21.661Z,9.70
2023-05-25T05:52:33.865Z,9.60
2023-05-25T05:56:36.103Z,10.20
2023-05-25T06:00:53.087Z,9.90
2023-05-25T06:04:55.129Z,10.10
2023-05-25T06:09:01.095Z,10.10
2023-05-25T06:13:07.874Z,11.30
2023-05-25T06:17:14.168Z,10.80
2023-05-25T06:21:20.189Z,10.70
2023-05-25T06:25:24.516Z,11.10
2023-05-25T06:29:26.710Z,11.70
2023-05-25T06:33:34.785Z,11.80
2023-05-25T06:37:38.286Z,11.80
2023-05-25T06:41:42.905Z,11.80
2023-05-25T06:45:51.077Z,11.80
2023-05-25T06:49:53.184Z,12.30
2023-05-25T06:54:01.319Z,11.90
2023-05-25T06:58:03.637Z,12.70
2023-05-25T07:02:08.207Z,13.10
2023-05-25T07:06:13.127Z,12.70
2023-05-25T07:10:21.199Z,12.40
2023-05-25T07:14:23.187Z,12.50
2023-05-25T07:18:26.401Z,12.60
2023-05-25T07:22:28.650Z,12.40
2023-05-25T07:26:36.777Z,12.60
2023-05-25T07:30:40.206Z,12.80
2023-05-25T07:34:42.253Z,13.30
2023-05-25T07:38:46.652Z,13.40
2023-05-25T07:42:51.625Z,13.80
2023-05-25T07:46:55.018Z,13.70
2023-05-25T07:50:56.998Z,14.10
2023-05-25T07:55:02.706Z,14.20
2023-05-25T07:59:10.285Z,14.40
2023-05-25T08:03:12.435Z,14.30
2023-05-25T08:07:30.611Z,14.50
2023-05-25T08:11:32.809Z,14.00
2023-05-25T08:15:35.069Z,14.40
2023-05-25T08:19:39.635Z,14.40
2023-05-25T08:23:43.114Z,14.20
2023-05-25T08:27:57.504Z,14.00
2023-05-25T08:31:59.632Z,13.80
2023-05-25T08:36:15.569Z,14.30
2023-05-25T08:40:25.726Z,14.90
2023-05-25T08:44:29.602Z,14.80
2023-05-25T08:48:41.876Z,14.40
2023-05-25T08:52:46.296Z,14.50
2023-05-25T08:57:01.010Z,14.70
2023-05-25T09:01:07.656Z,14.60
2023-05-25T09:05:13.996Z,14.60
2023-05-25T09:09:27.260Z,14.80
2023-05-25T09:13:34.388Z,15.20
2023-05-25T09:17:39.640Z,15.30
2023-05-25T09:21:41.952Z,15.80
2023-05-25T09:25:46.575Z,16.00
2023-05-25T09:29:52.412Z,15.20
2023-05-25T09:34:04.304Z,15.20
2023-05-25T09:38:09.714Z,15.60
2023-05-25T09:42:15.717Z,15.30
2023-05-25T09:46:20.737Z,15.50
2023-05-25T09:50:25.071Z,15.50
2023-05-25T09:54:27.373Z,15.40
2023-05-25T09:58:33.562Z,15.80
2023-05-25T10:02:36.458Z,15.20
2023-05-25T10:06:43.174Z,14.80
2023-05-25T10:10:47.251Z,14.90
2023-05-25T10:14:52.105Z,15.50
2023-05-25T10:19:21.369Z,15.80
2023-05-25T10:23:27.526Z,15.80
2023-05-25T10:27:41.393Z,15.00
2023-05-25T10:31:48.034Z,15.00
2023-05-25T10:36:02.975Z,15.40
2023-05-25T10:40:16.040Z,15.50
2023-05-25T10:44:18.862Z,15.90
2023-05-25T10:48:24.223Z,16.30
2023-05-25T10:52:34.836Z,16.60
2023-05-25T10:56:36.967Z,16.40
2023-05-25T11:00:42.140Z,16.30
2023-05-25T11:04:48.353Z,16.80
2023-05-25T11:09:04.347Z,16.50
2023-05-25T11:13:38.098Z,16.60
2023-05-25T11:17:58.440Z,17.00
2023-05-25T11:22:16.514Z,17.70
2023-05-25T11:26:24.219Z,18.10
2023-05-25T11:30:31.348Z,17.80
2023-05-25T11:34:33.614Z,16.90
2023-05-25T11:38:37.687Z,16.80
2023-05-25T11:42:42.054Z,17.20
2023-05-25T11:46:47.025Z,17.10
2023-05-25T11:51:03.888Z,17.00
2023-05-25T11:55:14.566Z,17.20
2023-05-25T11:59:17.145Z,17.90
2023-05-25T12:03:33.592Z,17.50
2023-05-25T12:07:42.695Z,17.30
2023-05-25T12:11:47.021Z,17.10
2023-05-25T12:15:49.287Z,16.70
2023-05-25T12:19:52.636Z,17.60
2023-05-25T12:23:58.336Z,17.40
2023-05-25T12:28:18.459Z,17.00
2023-05-25T12:32:32.071Z,17.50
2023-05-25T12:36:47.101Z,17.00
2023-05-25T12:41:08.670Z,17.20
2023-05-25T12:45:16.621Z,16.90
2023-05-25T12:49:33.288Z,17.00
2023-05-25T12:53:50.460Z,17.20
2023-05-25T12:58:00.124Z,17.40
2023-05-25T13:02:08.688Z,17.30
2023-05-25T13:06:23.618Z,17.80
2023-05-25T13:10:33.941Z,18.00
2023-05-25T13:14:38.819Z,17.00
2023-05-25T13:18:46.124Z,17.40
2023-05-25T13:23:00.720Z,17.70
2023-05-25T13:27:08.257Z,17.80
2023-05-25T13:31:15.517Z,17.20
2023-05-25T13:35:37.626Z,17.60
2023-05-25T13:39:43.298Z,17.20
2023-05-25T13:43:49.447Z,16.90
2023-05-25T13:52:35.481Z,17.40
2023-05-25T13:56:49.632Z,17.50
2023-05-25T14:00:54.938Z,17.20
2023-05-25T14:05:20.407Z,17.50
2023-05-25T14:09:24.045Z,17.50
2023-05-25T14:18:25.342Z,17.10
2023-05-25T14:23:24.688Z,16.90
2023-05-25T14:32:56.573Z,16.90
2023-05-25T14:37:19.171Z,17.20
2023-05-25T14:41:38.079Z,16.90
2023-05-25T14:46:04.664Z,16.40
2023-05-25T14:50:23.204Z,16.80
2023-05-25T14:59:41.545Z,17.00
2023-05-25T15:04:30.411Z,17.50
2023-05-25T15:08:37.363Z,17.30
2023-05-25T15:13:02.944Z,17.00
2023-05-25T15:17:13.829Z,16.80
2023-05-25T15:21:29.580Z,17.00
2023-05-25T15:30:13.560Z,17.10
2023-05-25T15:43:41.859Z,16.80
2023-05-25T15:47:43.792Z,16.90
2023-05-25T15:51:45.756Z,17.10
2023-05-25T15:55:47.591Z,17.10
2023-05-25T15:59:49.736Z,17.00
2023-05-25T16:03:51.597Z,16.60
2023-05-25T16:07:53.383Z,17.00
2023-05-25T16:11:56.144Z,17.00
2023-05-25T16:15:57.887Z,17.30
2023-05-25T16:19:59.697Z,17.20
2023-05-25T16:24:01.478Z,17.10
2023-05-25T16:28:03.478Z,17.00
2023-05-25T16:32:06.674Z,17.20
2023-05-25T16:36:08.672Z,16.80
2023-05-25T16:40:11.657Z,17.10
2023-05-25T16:44:13.838Z,17.20
2023-05-25T16:48:15.829Z,16.90
2023-05-25T16:52:18.373Z,16.90
2023-05-25T16:56:21.489Z,17.10
2023-05-25T17:00:23.413Z,17.00
2023-05-25T17:04:25.313Z,17.20
2023-05-25T17:08:27.047Z,17.00
2023-05-25T17:12:28.943Z,16.90
2023-05-25T17:16:30.856Z,16.80
2023-05-25T17:20:32.782Z,16.80
2023-05-25T17:24:34.639Z,16.70
2023-05-25T17:28:36.734Z,16.90
2023-05-25T17:32:40.856Z,16.50
2023-05-25T17:36:45.229Z,16.80
2023-05-25T17:40:50.211Z,16.60
2023-05-25T17:44:52.722Z,16.30
2023-05-25T17:48:54.514Z,17.00
2023-05-25T17:52:56.351Z,16.50
2023-05-25T17:56:58.140Z,16.20
2023-05-25T18:01:00.051Z,16.30
2023-05-25T18:05:01.917Z,15.70
2023-05-25T18:09:04.302Z,15.70
2023-05-25T18:13:06.085Z,15.40
2023-05-25T18:17:07.975Z,15.60
2023-05-25T18:21:09.782Z,15.40
2023-05-25T18:25:11.588Z,15.40
2023-05-25T18:29:13.610Z,15.40
2023-05-25T18:33:16.381Z,15.20
2023-05-25T18:37:18.202Z,15.30
2023-05-25T18:41:22.860Z,15.10
2023-05-25T18:45:24.621Z,15.30
2023-05-25T18:49:27.185Z,15.30
2023-05-25T18:53:29.221Z,15.10
2023-05-25T18:57:31.067Z,14.90
2023-05-25T19:01:33.393Z,15.00
2023-05-25T19:05:35.568Z,14.90
2023-05-25T19:09:37.555Z,14.80
2023-05-25T19:13:39.388Z,14.80
2023-05-25T19:17:41.361Z,14.80
2023-05-25T19:21:43.094Z,14.60
2023-05-25T19:25:45.256Z,14.50
2023-05-25T19:29:48.092Z,14.60
2023-05-25T19:33:49.915Z,14.50
2023-05-25T19:37:51.732Z,14.70
2023-05-25T19:41:54.018Z,14.90
2023-05-25T19:45:56.168Z,14.60
2023-05-25T19:49:58.080Z,14.60
2023-05-25T19:53:59.985Z,14.50
2023-05-25T19:58:01.812Z,14.30
2023-05-25T20:02:04.279Z,14.40
2023-05-25T20:06:06.495Z,14.40
2023-05-25T20:10:08.380Z,14.30
2023-05-25T20:14:10.153Z,14.10
2023-05-25T20:18:11.972Z,14.00
2023-05-25T20:22:13.681Z,13.90
2023-05-25T20:26:15.488Z,13.80
2023-05-25T20:30:17.299Z,13.70
2023-05-25T20:34:19.086Z,13.50
2023-05-25T20:38:20.915Z,13.50
2023-05-25T20:42:22.632Z,13.60
2023-05-25T20:46:24.581Z,13.60
2023-05-25T20:50:26.567Z,13.50
2023-05-25T20:54:28.373Z,13.40
2023-05-25T20:58:30.103Z,13.30
2023-05-25T21:02:31.929Z,13.20
2023-05-25T21:06:33.773Z,13.30
2023-05-25T21:10:38.545Z,13.30
2023-05-25T21:14:40.519Z,13.20
2023-05-25T21:18:42.280Z,13.20
2023-05-25T21:22:44.116Z,13.10
2023-05-25T21:26:45.891Z,13.10
2023-05-25T21:30:47.657Z,13.00
2023-05-25T21:34:52.970Z,13.00
2023-05-25T21:38:54.830Z,12.90
2023-05-25T21:42:56.576Z,12.90
2023-05-25T21:46:58.715Z,12.80
2023-05-25T21:51:00.772Z,12.80
2023-05-25T21:55:02.624Z,12.70
2023-05-25T21:59:04.543Z,12.60
2023-05-25T22:03:06.845Z,12.60
2023-05-25T22:07:11.276Z,12.40
2023-05-25T22:11:15.198Z,12.30
2023-05-25T22:15:16.959Z,12.20
2023-05-25T22:19:18.748Z,12.20
2023-05-25T22:23:20.490Z,12.20
2023-05-25T22:27:22.205Z,12.10
2023-05-25T22:31:25.669Z,12.10
2023-05-25T22:35:27.447Z,12.00
2023-05-25T22:39:29.132Z,12.00
2023-05-25T22:43:30.805Z,11.90
2023-05-25T22:47:32.595Z,11.80
2023-05-25T22:51:34.353Z,11.80
2023-05-25T22:55:36.361Z,11.80
2023-05-25T22:59:38.291Z,11.60
2023-05-25T23:03:40.143Z,11.60
2023-05-25T23:07:41.982Z,11.50
2023-05-25T23:11:43.810Z,11.20
2023-05-25T23:15:45.800Z,11.30
2023-05-25T23:19:48.005Z,11.20
2023-05-25T23:23:49.770Z,10.80
2023-05-25T23:27:51.581Z,10.80
2023-05-25T23:31:53.425Z,10.80
2023-05-25T23:35:55.504Z,10.70
2023-05-25T23:39:57.281Z,10.40
2023-05-25T23:43:59.099Z,10.30
2023-05-25T23:48:00.909Z,10.20
2023-05-25T23:52:02.820Z,10.60
2023-05-25T23:56:04.788Z,10.60
